Time;durP1;ratioP1;P1;durP2;ratioP2;P2;SDS_P1;SDS_P2;PMS_P1;PMS_P2;Temp;Humidity;BMP_temperature;BMP_pressure;BME280_temperature;BME280_humidity;BME280_pressure;Samples;Min_cycle;Max_cycle;Signal;HPM_P1;HPM_P2
2021/12/22 05:21:24;;;;;;;18.65;9.70;;;;;;;-3.35;82.50;101577.56;5555658;32;33941;-89
2021/12/22 05:24:27;;;;;;;19.42;9.60;;;;;;;-3.85;83.90;101587.47;5553948;32;34389;-89
2021/12/22 05:27:30;;;;;;;21.12;10.07;;;;;;;-3.82;84.16;101578.91;5543545;32;33317;-89
2021/12/22 05:30:33;;;;;;;19.15;9.10;;;;;;;-3.75;83.71;101578.22;5544706;32;35027;-89
2021/12/22 05:33:36;;;;;;;13.85;8.30;;;;;;;-3.74;83.47;101579.97;5544831;32;34002;-87
2021/12/22 05:36:39;;;;;;;20.52;9.25;;;;;;;-3.70;84.17;101591.31;5544394;32;33530;-89
2021/12/22 05:39:44;;;;;;;15.60;9.05;;;;;;;-3.63;82.81;101593.25;5544778;32;34129;-89
2021/12/22 05:42:46;;;;;;;16.42;9.43;;;;;;;-3.75;83.22;101598.09;5534668;32;34353;-87
2021/12/22 05:45:49;;;;;;;18.25;9.65;;;;;;;-3.59;82.58;101602.87;5540943;32;33655;-88
2021/12/22 05:48:55;;;;;;;17.80;9.35;;;;;;;-3.76;82.47;101599.81;5533444;32;33454;-88
2021/12/22 05:51:58;;;;;;;20.05;9.88;;;;;;;-3.64;82.23;101594.09;5525359;32;33755;-88
2021/12/22 05:55:01;;;;;;;19.12;9.98;;;;;;;-3.71;83.74;101602.53;5525376;32;34458;-88
2021/12/22 05:58:04;;;;;;;19.48;9.35;;;;;;;-3.50;82.58;101602.28;5525354;32;33938;-88
2021/12/22 06:01:07;;;;;;;19.67;9.50;;;;;;;-3.50;83.33;101606.56;5524931;32;34179;-88
2021/12/22 06:04:10;;;;;;;19.40;10.38;;;;;;;-3.56;83.00;101602.97;5525416;32;33808;-88
2021/12/22 06:07:12;;;;;;;20.45;9.75;;;;;;;-3.43;82.76;101617.16;5525588;32;33674;-88
2021/12/22 06:10:16;;;;;;;18.37;10.25;;;;;;;-3.39;82.49;101611.25;5526152;32;33850;-88
2021/12/22 06:13:19;;;;;;;22.10;10.15;;;;;;;-3.40;82.78;101616.37;5524970;32;34306;-88
2021/12/22 06:16:22;;;;;;;20.00;9.90;;;;;;;-3.40;82.94;101626.75;5525277;32;34555;-88
2021/12/22 06:19:24;;;;;;;18.80;9.73;;;;;;;-3.47;83.30;101632.63;5525280;32;34517;-88
2021/12/22 06:22:29;;;;;;;16.30;9.15;;;;;;;-3.46;83.60;101634.38;5527449;32;34487;-88
2021/12/22 06:25:32;;;;;;;21.40;10.18;;;;;;;-3.47;81.53;101635.22;5525703;32;34056;-88
2021/12/22 06:28:35;;;;;;;20.70;10.75;;;;;;;-3.39;82.56;101633.69;5517335;32;34265;-88
2021/12/22 06:31:37;;;;;;;19.85;10.70;;;;;;;-3.17;81.99;101642.09;5520243;32;34608;-88
2021/12/22 06:34:40;;;;;;;19.83;10.85;;;;;;;-3.17;82.62;101647.28;5529030;32;34772;-88
2021/12/22 06:37:44;;;;;;;21.37;11.20;;;;;;;-3.25;82.92;101657.47;5525251;32;36312;-88
2021/12/22 06:40:46;;;;;;;21.98;11.10;;;;;;;-3.46;83.74;101666.41;5517791;32;34427;-89
2021/12/22 06:43:49;;;;;;;20.70;10.75;;;;;;;-3.43;83.89;101668.16;5516285;32;33542;-88
2021/12/22 06:46:54;;;;;;;21.48;11.20;;;;;;;-3.47;83.58;101666.34;5520813;32;35222;-88
2021/12/22 06:49:56;;;;;;;23.45;11.68;;;;;;;-3.55;84.24;101666.12;5520106;32;33811;-87
2021/12/22 06:52:59;;;;;;;28.90;11.85;;;;;;;-3.46;84.33;101666.41;5536835;32;34073;-88
2021/12/22 06:56:02;;;;;;;21.00;11.10;;;;;;;-3.44;84.08;101669.91;5541671;32;34654;-89
2021/12/22 06:59:06;;;;;;;17.58;10.25;;;;;;;-3.43;83.10;101668.16;5531158;32;34610;-89
2021/12/22 07:02:08;;;;;;;22.27;11.38;;;;;;;-3.44;82.60;101667.31;5531390;32;34449;-88
2021/12/22 07:05:12;;;;;;;16.17;9.77;;;;;;;-3.35;82.18;101673.59;5532211;32;34580;-88
2021/12/22 07:08:14;;;;;;;19.98;10.10;;;;;;;-3.40;82.96;101663.97;5531358;32;34393;-87
2021/12/22 07:11:18;;;;;;;19.62;10.35;;;;;;;-3.30;82.21;101672.91;5531989;32;34307;-87
2021/12/22 07:14:21;;;;;;;19.27;9.85;;;;;;;-3.24;82.35;101669.59;5530852;32;33999;-88
2021/12/22 07:17:24;;;;;;;20.37;10.60;;;;;;;-3.24;82.30;101674.78;5528222;32;33685;-88
2021/12/22 07:20:26;;;;;;;20.15;11.12;;;;;;;-3.06;81.51;101674.44;5524331;32;34233;-88
2021/12/22 07:23:29;;;;;;;21.05;11.35;;;;;;;-3.05;81.31;101680.50;5543018;32;33929;-88
2021/12/22 07:26:32;;;;;;;23.65;11.88;;;;;;;-3.01;81.34;101685.78;5531017;32;33895;-90
2021/12/22 07:29:38;;;;;;;20.45;12.27;;;;;;;-2.93;80.84;101683.41;5532625;32;34401;-93
2021/12/22 07:32:41;;;;;;;19.73;10.45;;;;;;;-2.83;80.42;101686.28;5535578;32;33864;-93
2021/12/22 07:36:00;;;;;;;19.40;11.27;;;;;;;-2.81;80.08;101692.38;5546067;32;34786;-92
2021/12/22 07:39:07;;;;;;;25.92;11.20;;;;;;;-2.88;80.97;101693.91;5546478;32;35200;-90
2021/12/22 07:42:10;;;;;;;19.52;11.70;;;;;;;-2.68;79.88;101693.59;5528377;32;35244;-89
2021/12/22 07:45:12;;;;;;;25.45;13.48;;;;;;;-2.59;79.75;101696.44;5515837;32;34150;-88
2021/12/22 07:48:15;;;;;;;23.00;11.80;;;;;;;-2.54;79.42;101694.81;5531966;32;33930;-89
2021/12/22 07:51:18;;;;;;;23.30;12.48;;;;;;;-2.29;78.52;101700.66;5523982;32;34016;-89
2021/12/22 07:54:21;;;;;;;24.30;12.07;;;;;;;-2.42;78.65;101704.66;5530501;32;35121;-89
2021/12/22 07:57:24;;;;;;;22.52;12.05;;;;;;;-2.25;77.44;101710.28;5531646;32;34005;-90
2021/12/22 08:00:27;;;;;;;18.87;10.82;;;;;;;-2.33;78.19;101715.28;5532819;32;34191;-89
2021/12/22 08:03:31;;;;;;;21.73;11.32;;;;;;;-2.28;75.37;101712.78;5533561;32;34267;-90
2021/12/22 08:06:50;;;;;;;22.30;12.80;;;;;;;-2.31;77.16;101712.75;5533514;32;33696;-90
2021/12/22 08:09:53;;;;;;;24.35;12.13;;;;;;;-2.24;78.15;101721.56;5537229;32;33780;-89
2021/12/22 08:12:56;;;;;;;20.88;10.68;;;;;;;-2.17;77.92;101723.47;5535599;32;33612;-91
2021/12/22 08:15:59;;;;;;;20.40;11.20;;;;;;;-2.18;76.16;101722.59;5540019;32;34030;-90
2021/12/22 08:19:01;;;;;;;20.65;11.73;;;;;;;-2.01;75.66;101727.31;5532567;32;34172;-90
2021/12/22 08:22:05;;;;;;;22.58;11.88;;;;;;;-2.17;75.17;101723.47;5517344;32;33529;-91
2021/12/22 08:25:08;;;;;;;20.05;11.25;;;;;;;-2.22;75.29;101728.53;5519808;32;34095;-90
2021/12/22 08:28:13;;;;;;;24.23;12.02;;;;;;;-2.01;74.72;101729.91;5525478;32;33707;-90
2021/12/22 08:31:15;;;;;;;32.38;13.82;;;;;;;-2.08;74.40;101726.28;5607857;26;35272;-90
2021/12/22 08:34:26;;;;;;;25.42;13.98;;;;;;;-1.87;76.08;101732.84;5539319;32;33134;-90
2021/12/22 08:40:50;;;;;;;25.55;11.82;;;;;;;-1.61;73.19;101742.13;5578954;26;33802;-90
2021/12/22 08:43:55;;;;;;;20.90;10.98;;;;;;;-1.65;73.31;101747.22;5531617;32;34207;-90
2021/12/22 08:46:58;;;;;;;19.90;9.82;;;;;;;-1.85;72.59;101743.28;5532725;32;33667;-93
2021/12/22 08:57:07;;;;;;;18.58;10.27;;;;;;;-1.57;70.26;101750.00;5547225;32;33402;-86
2021/12/22 09:00:11;;;;;;;17.62;9.65;;;;;;;-1.37;69.81;101750.47;5549630;32;33871;-86
2021/12/22 09:03:14;;;;;;;21.85;10.05;;;;;;;-1.36;69.29;101747.00;5549131;32;34631;-86
2021/12/22 09:06:23;;;;;;;23.73;10.48;;;;;;;-1.36;69.70;101748.72;5550074;32;33928;-85
2021/12/22 09:09:25;;;;;;;17.33;9.32;;;;;;;-1.36;68.66;101753.94;5552810;32;34394;-85
2021/12/22 09:12:29;;;;;;;17.05;8.55;;;;;;;-1.26;67.89;101750.69;5550555;32;34667;-85
2021/12/22 09:15:32;;;;;;;15.70;9.20;;;;;;;-1.04;67.20;101756.38;5551513;32;33985;-89
2021/12/22 09:18:36;;;;;;;21.00;9.23;;;;;;;-0.94;64.85;101749.63;5611955;26;34248;-90
2021/12/22 09:48:32;;;;;;;15.38;8.68;;;;;;;-0.65;62.60;101751.03;1810189;26;20473;-90
2021/12/22 10:05:53;;;;;;;18.87;9.30;;;;;;;-0.58;63.20;101729.44;5600193;26;32115;-90
2021/12/22 10:09:03;;;;;;;21.23;9.23;;;;;;;-0.46;62.02;101731.41;5568926;26;33939;-89
2021/12/22 10:12:14;;;;;;;19.90;8.85;;;;;;;-0.39;61.48;101729.75;5545811;32;33907;-89
2021/12/22 10:15:29;;;;;;;16.48;9.23;;;;;;;-0.98;61.16;101735.66;5542410;32;34452;-88
2021/12/22 10:18:32;;;;;;;24.90;8.63;;;;;;;-1.08;61.79;101728.50;5543696;32;35035;-88
2021/12/22 10:21:49;;;;;;;16.55;9.43;;;;;;;-0.82;61.56;101730.72;5549564;32;34314;-89
2021/12/22 10:25:00;;;;;;;15.68;9.13;;;;;;;-0.47;61.32;101725.31;5547665;32;34799;-89
2021/12/22 10:28:15;;;;;;;14.80;8.75;;;;;;;-0.66;60.53;101723.22;5531856;32;33967;-89
2021/12/22 10:31:23;;;;;;;18.42;8.85;;;;;;;-1.02;61.71;101731.22;5549075;32;33345;-89
2021/12/22 10:34:26;;;;;;;15.32;8.88;;;;;;;-1.10;62.12;101723.25;5553715;32;35002;-88
2021/12/22 10:37:34;;;;;;;13.50;8.43;;;;;;;-0.97;61.03;101723.50;5560105;32;34183;-89
2021/12/22 10:40:40;;;;;;;15.07;7.60;;;;;;;-0.86;61.47;101721.97;5560626;32;34476;-89
2021/12/22 10:43:46;;;;;;;13.48;7.90;;;;;;;-0.90;61.31;101716.69;5548111;32;34543;-90
2021/12/22 10:46:48;;;;;;;13.62;7.75;;;;;;;-0.83;61.66;101718.56;5542719;32;33625;-90
2021/12/22 10:50:06;;;;;;;15.55;8.25;;;;;;;-1.07;61.74;101712.00;5558290;32;34290;-89
2021/12/22 10:53:12;;;;;;;21.85;9.07;;;;;;;-1.29;61.74;101713.28;5557825;32;34409;-90
2021/12/22 10:56:29;;;;;;;18.00;8.68;;;;;;;-1.12;61.66;101711.94;5562667;32;33975;-90
2021/12/22 11:10:55;;;;;;;17.55;8.85;;;;;;;-1.15;61.41;101709.25;5397683;29;20123;-91
2021/12/22 11:14:16;;;;;;;19.30;9.45;;;;;;;-1.07;61.20;101701.59;5575293;31;34217;-90
2021/12/22 11:17:20;;;;;;;18.92;10.27;;;;;;;-0.67;60.75;101706.69;5573225;31;33854;-90
2021/12/22 11:20:25;;;;;;;16.87;9.43;;;;;;;-0.41;60.28;101695.84;5571400;31;33872;-90
2021/12/22 12:23:38;;;;;;;18.35;8.85;;;;;;;-0.78;60.11;101670.00;5516919;32;34268;-91
2021/12/22 12:26:43;;;;;;;22.02;10.02;;;;;;;-0.71;60.57;101661.44;5511012;32;33795;-88
2021/12/22 12:29:57;;;;;;;17.35;8.85;;;;;;;-0.44;59.50;101660.16;5511819;32;34001;-89
2021/12/22 12:33:05;;;;;;;18.48;9.63;;;;;;;-0.10;58.49;101653.75;5511375;32;33905;-87
2021/12/22 12:36:11;;;;;;;15.88;9.10;;;;;;;-0.09;58.58;101652.88;5511918;32;33828;-88
2021/12/22 12:39:14;;;;;;;16.80;9.25;;;;;;;-0.16;57.82;101654.50;5513399;32;33919;-88
2021/12/22 12:42:17;;;;;;;22.05;9.93;;;;;;;-0.37;58.99;101648.13;5515607;32;35232;-89
2021/12/22 12:45:43;;;;;;;19.25;10.07;;;;;;;-0.08;58.74;101646.81;5514671;32;34570;-88
2021/12/22 12:48:50;;;;;;;18.95;10.25;;;;;;;-0.19;58.96;101646.66;5526038;32;33727;-89
2021/12/22 12:51:56;;;;;;;21.00;9.90;;;;;;;0.03;58.94;101646.94;5541769;32;34808;-89
2021/12/22 12:55:12;;;;;;;19.23;10.13;;;;;;;-0.12;59.20;101647.59;5543041;32;35134;-89
2021/12/22 12:58:48;;;;;;;17.05;9.75;;;;;;;0.01;59.46;101646.06;5537736;32;33860;-89
2021/12/22 13:01:50;;;;;;;16.73;9.93;;;;;;;0.16;58.92;101651.53;5531479;32;33448;-89
2021/12/22 13:04:56;;;;;;;21.73;10.55;;;;;;;0.62;58.06;101646.03;5531064;32;34308;-89
2021/12/22 13:08:05;;;;;;;18.73;10.07;;;;;;;0.57;57.44;101654.66;5530940;32;33717;-88
2021/12/22 13:11:12;;;;;;;19.75;10.63;;;;;;;0.74;57.12;101655.72;5531069;32;34116;-89
2021/12/22 13:18:10;;;;;;;19.12;10.55;;;;;;;0.63;57.25;101647.78;5515299;32;33707;-88
2021/12/22 13:21:13;;;;;;;19.92;11.63;;;;;;;0.60;57.23;101652.94;5530766;32;34232;-88
2021/12/22 13:24:19;;;;;;;25.60;11.10;;;;;;;0.49;58.02;101650.19;5531186;32;33859;-88
2021/12/22 13:27:29;;;;;;;19.33;11.07;;;;;;;0.26;58.09;101655.13;5531010;32;33555;-88
2021/12/22 13:30:35;;;;;;;22.67;11.40;;;;;;;0.23;58.42;101650.75;5582233;26;34628;-89
2021/12/22 13:33:51;;;;;;;21.60;11.35;;;;;;;0.32;58.54;101649.09;5554065;32;33996;-88
2021/12/22 13:37:00;;;;;;;20.62;11.05;;;;;;;0.30;58.49;101650.81;5550436;32;33694;-89
2021/12/22 13:40:02;;;;;;;22.30;11.80;;;;;;;0.31;58.79;101656.06;5552172;32;35200;-88
2021/12/22 13:43:07;;;;;;;25.60;11.77;;;;;;;0.20;59.07;101652.44;5553926;32;33946;-89
2021/12/22 13:46:31;;;;;;;21.20;11.95;;;;;;;0.02;60.08;101655.66;5559649;32;33953;-89
2021/12/22 13:49:35;;;;;;;21.77;11.57;;;;;;;0.05;59.68;101653.09;5566643;32;34759;-90
2021/12/22 13:52:37;;;;;;;22.80;12.63;;;;;;;0.01;60.06;101648.69;5566164;32;35313;-89
2021/12/22 13:55:40;;;;;;;21.02;11.43;;;;;;;-0.04;60.27;101651.22;5566171;32;35305;-89
2021/12/22 13:58:46;;;;;;;22.17;11.82;;;;;;;-0.22;61.59;101649.19;5567569;32;34234;-89
2021/12/22 14:01:51;;;;;;;25.35;11.82;;;;;;;-0.08;61.28;101645.09;5567378;32;35107;-89
2021/12/22 14:04:54;;;;;;;23.30;12.43;;;;;;;-0.35;62.26;101653.34;5566375;32;34834;-89
2021/12/22 14:07:57;;;;;;;23.90;12.50;;;;;;;-0.58;63.06;101651.22;5554072;32;34006;-88
2021/12/22 14:11:00;;;;;;;27.02;12.43;;;;;;;-0.59;63.08;101652.09;5553678;32;34406;-89
2021/12/22 14:14:33;;;;;;;26.48;12.55;;;;;;;-0.57;62.95;101650.37;5557538;32;34270;-89
2021/12/22 14:17:40;;;;;;;22.23;12.18;;;;;;;-0.54;62.81;101642.63;5564151;32;34172;-89
2021/12/22 14:20:43;;;;;;;25.35;12.73;;;;;;;-0.66;63.19;101651.09;5561515;32;33909;-89
2021/12/22 14:23:56;;;;;;;25.20;12.63;;;;;;;-0.80;63.68;101652.59;5562328;32;34007;-89
2021/12/22 14:27:00;;;;;;;21.58;12.05;;;;;;;-0.83;63.67;101648.19;5564127;32;34268;-89
2021/12/22 14:30:09;;;;;;;24.17;11.82;;;;;;;-0.69;63.17;101651.06;5565040;32;34672;-89
2021/12/22 14:33:16;;;;;;;23.95;12.30;;;;;;;-0.65;62.97;101652.88;5566326;32;34894;-89
2021/12/22 14:36:19;;;;;;;21.23;11.30;;;;;;;-0.89;63.47;101651.59;5556604;32;34615;-89
2021/12/22 14:39:38;;;;;;;25.77;12.75;;;;;;;-0.69;63.08;101651.06;5551634;32;33560;-89
2021/12/22 14:42:41;;;;;;;26.17;13.27;;;;;;;-0.96;64.46;101650.59;5553179;32;34699;-89
2021/12/22 14:45:52;;;;;;;25.90;12.90;;;;;;;-1.12;66.00;101653.72;5561773;32;33917;-89
2021/12/22 14:48:55;;;;;;;28.52;13.95;;;;;;;-1.29;66.64;101650.81;5555403;32;34184;-89
2021/12/22 14:52:05;;;;;;;23.92;13.18;;;;;;;-1.47;67.62;101654.78;5552045;32;33953;-89
2021/12/22 14:55:33;;;;;;;;;;;;;;;-1.46;67.68;101647.88;5551993;32;34452;-90
2021/12/22 14:58:36;;;;;;;23.60;13.05;;;;;;;-1.61;67.96;101640.63;5552064;32;34542;-90
2021/12/22 15:01:40;;;;;;;26.60;13.13;;;;;;;-1.78;68.73;101648.94;5554073;32;33458;-90
2021/12/22 15:04:43;;;;;;;24.20;13.18;;;;;;;-1.80;68.75;101650.63;5563615;32;34197;-89
2021/12/22 15:07:47;;;;;;;23.52;12.82;;;;;;;-1.85;69.10;101650.53;5565789;32;34868;-89
2021/12/22 15:10:50;;;;;;;27.23;12.75;;;;;;;-2.01;69.93;101648.44;5563943;32;33868;-89
2021/12/22 15:13:53;;;;;;;24.27;13.13;;;;;;;-2.06;70.26;101645.72;5561005;32;34996;-89
2021/12/22 15:16:56;;;;;;;26.30;13.25;;;;;;;-2.08;70.46;101645.69;5556144;32;34043;-89
2021/12/22 15:20:01;;;;;;;34.13;14.25;;;;;;;-2.17;71.21;101651.53;5558954;32;34287;-89
2021/12/22 15:23:04;;;;;;;25.58;14.10;;;;;;;-2.28;71.84;101647.81;5557189;32;34125;-89
2021/12/22 15:26:07;;;;;;;26.62;13.90;;;;;;;-2.22;71.51;101657.50;5551701;32;34187;-89
2021/12/22 15:29:09;;;;;;;28.20;14.50;;;;;;;-2.30;72.00;101654.69;5550032;32;33921;-89
2021/12/22 15:32:12;;;;;;;27.00;13.62;;;;;;;-2.30;72.27;101650.37;5550042;32;33972;-89
2021/12/22 15:35:16;;;;;;;27.15;12.95;;;;;;;-2.30;72.31;101660.75;5550125;32;33844;-89
